Minor Hill, Tennessee
Current Conditions -  °F | °C
As of 7:53 PM on Friday 28 Nov 2014 (Local Time) from KDCU Reporting Station
Clear Clear  
Wind Chill: 35°   Ceiling: Unl
Heat Index: 40°   Visibility: 10mi
Dew Point: 24°   Wind: 7mph
Humidity: 53%   Direction: 130°SE
Pressure: 30.24"   Gusts: NA
Location:  35.06°N, 87.16°W
Report Text: KDCU 290153Z AUTO 13006KT 10SM CLR 04/M04 A3024 RMK AO2 SLP242 T00441044 $
Loading
Personal Weather Stations






























Interactive Weather Map New forecast layout! Learn more

10-Day Weather Forecast

Advertisements
Track Severe Weather on mobile